KSMO/SMO METAR and TAF weather

Enter ICAO airport designator
Station Type Date Time Source
KSMO METAR 2022/06/26 06:51 UTC NOAA

KSMO 260651Z AUTO 24003KT 10SM CLR 17/15 A2996 RMK AO2 SLP142 T01720150


Station Type Date Time Source
KSMO Decoded METAR 2022/06/26 06:51 UTC NOAA

SANTA MONICA MUNICIPAL AIRPORT , CA, United States (KSMO) 34-01N 118-27W 57M
Jun 26, 2022 - 02:51 AM EDT / 2022.06.26 0651 UTC
Wind: from the WSW (240 degrees) at 3 MPH (3 KT):0
Visibility: 10 mile(s):0
Sky conditions: clear
Temperature: 63.0 F (17.2 C)
Dew Point: 59.0 F (15.0 C)
Relative Humidity: 86%
Pressure (altimeter): 29.96 in. Hg (1014 hPa)
ob: KSMO 260651Z AUTO 24003KT 10SM CLR 17/15 A2996 RMK AO2 SLP142 T01720150
cycle: 7

Station Type Date Time Source
KSMO TAF 2022/06/26 06:24 UTC NOAA

KSMO 260520Z 2606/2706 VRB03KT P6SM OVC006
FM260900 VRB03KT 3SM BR OVC004
FM261600 VRB03KT P6SM SCT006
FM261800 24008KT P6SM SKC
FM270400 VRB03KT P6SM SCT006

Example: see airport list